sensor_id;sensor_type;location;lat;lon;timestamp;temperature;humidity
21602;DHT22;10963;50.934;4.668;2023-12-28T00:02:04;11.40;99.90
21602;DHT22;10963;50.934;4.668;2023-12-28T00:04:30;11.30;99.90
21602;DHT22;10963;50.934;4.668;2023-12-28T00:06:56;11.10;99.90
21602;DHT22;10963;50.934;4.668;2023-12-28T00:09:21;11.10;99.90
21602;DHT22;10963;50.934;4.668;2023-12-28T00:11:47;11.00;99.90
21602;DHT22;10963;50.934;4.668;2023-12-28T00:14:15;11.00;99.90
21602;DHT22;10963;50.934;4.668;2023-12-28T00:16:41;11.00;99.90
21602;DHT22;10963;50.934;4.668;2023-12-28T00:19:09;11.10;99.90
21602;DHT22;10963;50.934;4.668;2023-12-28T00:21:35;11.20;99.90
21602;DHT22;10963;50.934;4.668;2023-12-28T00:24:03;11.30;99.90
21602;DHT22;10963;50.934;4.668;2023-12-28T00:26:28;11.20;99.90
21602;DHT22;10963;50.934;4.668;2023-12-28T00:28:59;11.20;99.90
21602;DHT22;10963;50.934;4.668;2023-12-28T00:31:30;11.40;99.90
21602;DHT22;10963;50.934;4.668;2023-12-28T00:33:58;11.40;99.90
21602;DHT22;10963;50.934;4.668;2023-12-28T00:36:23;11.30;99.90
21602;DHT22;10963;50.934;4.668;2023-12-28T00:38:49;11.30;99.90
21602;DHT22;10963;50.934;4.668;2023-12-28T00:41:17;11.30;99.90
21602;DHT22;10963;50.934;4.668;2023-12-28T00:43:42;11.30;99.90
21602;DHT22;10963;50.934;4.668;2023-12-28T00:46:10;11.30;99.90
21602;DHT22;10963;50.934;4.668;2023-12-28T00:48:38;11.30;99.90
21602;DHT22;10963;50.934;4.668;2023-12-28T00:51:07;11.30;99.90
21602;DHT22;10963;50.934;4.668;2023-12-28T00:53:35;11.30;99.90
21602;DHT22;10963;50.934;4.668;2023-12-28T00:56:03;11.40;99.90
21602;DHT22;10963;50.934;4.668;2023-12-28T00:58:28;11.40;99.90
21602;DHT22;10963;50.934;4.668;2023-12-28T01:00:54;11.30;99.90
21602;DHT22;10963;50.934;4.668;2023-12-28T01:03:22;11.30;99.90
21602;DHT22;10963;50.934;4.668;2023-12-28T01:05:49;11.20;99.90
21602;DHT22;10963;50.934;4.668;2023-12-28T01:08:18;11.20;99.90
21602;DHT22;10963;50.934;4.668;2023-12-28T01:10:44;11.20;99.90
21602;DHT22;10963;50.934;4.668;2023-12-28T01:13:10;11.20;99.90
21602;DHT22;10963;50.934;4.668;2023-12-28T01:15:40;11.20;99.90
21602;DHT22;10963;50.934;4.668;2023-12-28T01:18:06;11.30;99.90
21602;DHT22;10963;50.934;4.668;2023-12-28T01:20:32;11.30;99.90
21602;DHT22;10963;50.934;4.668;2023-12-28T01:23:01;11.30;99.90
21602;DHT22;10963;50.934;4.668;2023-12-28T01:25:26;11.20;99.90
21602;DHT22;10963;50.934;4.668;2023-12-28T01:27:52;11.30;99.90
21602;DHT22;10963;50.934;4.668;2023-12-28T01:30:22;11.20;99.90
21602;DHT22;10963;50.934;4.668;2023-12-28T01:32:56;11.10;99.90
21602;DHT22;10963;50.934;4.668;2023-12-28T01:35:22;11.00;99.90
21602;DHT22;10963;50.934;4.668;2023-12-28T01:37:47;11.10;99.90
21602;DHT22;10963;50.934;4.668;2023-12-28T01:40:15;11.20;99.90
21602;DHT22;10963;50.934;4.668;2023-12-28T01:42:42;11.20;99.90
21602;DHT22;10963;50.934;4.668;2023-12-28T01:45:10;11.20;99.90
21602;DHT22;10963;50.934;4.668;2023-12-28T01:47:36;11.20;99.90
21602;DHT22;10963;50.934;4.668;2023-12-28T01:50:02;11.10;99.90
21602;DHT22;10963;50.934;4.668;2023-12-28T01:52:28;11.10;99.90
21602;DHT22;10963;50.934;4.668;2023-12-28T01:54:58;11.10;99.90
21602;DHT22;10963;50.934;4.668;2023-12-28T01:57:24;11.00;99.90
21602;DHT22;10963;50.934;4.668;2023-12-28T01:59:51;11.00;99.90
21602;DHT22;10963;50.934;4.668;2023-12-28T02:02:20;10.90;99.90
21602;DHT22;10963;50.934;4.668;2023-12-28T02:04:46;10.80;99.90
21602;DHT22;10963;50.934;4.668;2023-12-28T02:07:15;10.80;99.90
21602;DHT22;10963;50.934;4.668;2023-12-28T02:09:43;10.90;99.90
21602;DHT22;10963;50.934;4.668;2023-12-28T02:12:09;10.80;99.90
21602;DHT22;10963;50.934;4.668;2023-12-28T02:14:35;10.80;99.90
21602;DHT22;10963;50.934;4.668;2023-12-28T02:17:10;10.70;99.90
21602;DHT22;10963;50.934;4.668;2023-12-28T02:19:50;10.60;99.90
21602;DHT22;10963;50.934;4.668;2023-12-28T02:22:18;10.70;99.90
21602;DHT22;10963;50.934;4.668;2023-12-28T02:27:33;10.60;99.90
21602;DHT22;10963;50.934;4.668;2023-12-28T02:30:02;10.60;99.90
21602;DHT22;10963;50.934;4.668;2023-12-28T02:32:52;10.50;99.90
21602;DHT22;10963;50.934;4.668;2023-12-28T02:35:36;10.60;99.90
21602;DHT22;10963;50.934;4.668;2023-12-28T02:38:11;10.70;99.90
21602;DHT22;10963;50.934;4.668;2023-12-28T02:40:40;10.60;99.90
21602;DHT22;10963;50.934;4.668;2023-12-28T02:43:09;10.50;99.90
21602;DHT22;10963;50.934;4.668;2023-12-28T02:45:35;10.60;99.90
21602;DHT22;10963;50.934;4.668;2023-12-28T02:48:04;10.60;99.90
21602;DHT22;10963;50.934;4.668;2023-12-28T02:50:30;10.70;99.90
21602;DHT22;10963;50.934;4.668;2023-12-28T02:52:56;10.70;99.90
21602;DHT22;10963;50.934;4.668;2023-12-28T02:55:25;10.90;99.90
21602;DHT22;10963;50.934;4.668;2023-12-28T02:57:53;10.90;99.90
21602;DHT22;10963;50.934;4.668;2023-12-28T03:00:21;10.90;99.90
21602;DHT22;10963;50.934;4.668;2023-12-28T03:02:49;11.10;99.90
21602;DHT22;10963;50.934;4.668;2023-12-28T03:05:14;11.00;99.90
21602;DHT22;10963;50.934;4.668;2023-12-28T03:07:40;11.00;99.90
21602;DHT22;10963;50.934;4.668;2023-12-28T03:10:08;11.00;99.90
21602;DHT22;10963;50.934;4.668;2023-12-28T03:12:36;11.00;99.90
21602;DHT22;10963;50.934;4.668;2023-12-28T03:15:03;11.20;99.90
21602;DHT22;10963;50.934;4.668;2023-12-28T03:17:29;11.30;99.90
21602;DHT22;10963;50.934;4.668;2023-12-28T03:19:57;11.20;99.90
21602;DHT22;10963;50.934;4.668;2023-12-28T03:22:23;11.20;99.90
21602;DHT22;10963;50.934;4.668;2023-12-28T03:24:51;11.20;99.90
21602;DHT22;10963;50.934;4.668;2023-12-28T03:27:17;11.10;99.90
21602;DHT22;10963;50.934;4.668;2023-12-28T03:29:45;11.10;99.90
21602;DHT22;10963;50.934;4.668;2023-12-28T03:32:11;11.10;99.90
21602;DHT22;10963;50.934;4.668;2023-12-28T03:34:37;11.20;99.90
21602;DHT22;10963;50.934;4.668;2023-12-28T03:37:03;11.30;99.90
21602;DHT22;10963;50.934;4.668;2023-12-28T03:39:29;11.40;99.90
21602;DHT22;10963;50.934;4.668;2023-12-28T03:41:54;11.50;99.90
21602;DHT22;10963;50.934;4.668;2023-12-28T03:44:20;11.50;99.90
21602;DHT22;10963;50.934;4.668;2023-12-28T03:46:50;11.40;99.90
21602;DHT22;10963;50.934;4.668;2023-12-28T03:49:20;11.40;99.90
21602;DHT22;10963;50.934;4.668;2023-12-28T03:51:47;11.30;99.90
21602;DHT22;10963;50.934;4.668;2023-12-28T03:54:16;11.30;99.90
21602;DHT22;10963;50.934;4.668;2023-12-28T03:56:42;11.30;99.90
21602;DHT22;10963;50.934;4.668;2023-12-28T03:59:09;11.30;99.90
21602;DHT22;10963;50.934;4.668;2023-12-28T04:01:35;11.20;99.90
21602;DHT22;10963;50.934;4.668;2023-12-28T04:04:00;11.30;99.90
21602;DHT22;10963;50.934;4.668;2023-12-28T04:06:30;11.30;99.90
21602;DHT22;10963;50.934;4.668;2023-12-28T04:08:55;11.20;99.90
21602;DHT22;10963;50.934;4.668;2023-12-28T04:11:21;11.30;99.90
21602;DHT22;10963;50.934;4.668;2023-12-28T04:13:47;11.30;99.90
21602;DHT22;10963;50.934;4.668;2023-12-28T04:16:13;11.40;99.90
21602;DHT22;10963;50.934;4.668;2023-12-28T04:18:42;11.40;99.90
21602;DHT22;10963;50.934;4.668;2023-12-28T04:21:12;11.50;99.90
21602;DHT22;10963;50.934;4.668;2023-12-28T04:23:38;11.40;99.90
21602;DHT22;10963;50.934;4.668;2023-12-28T04:26:04;11.40;99.90
21602;DHT22;10963;50.934;4.668;2023-12-28T04:28:30;11.40;99.90
21602;DHT22;10963;50.934;4.668;2023-12-28T04:30:56;11.40;99.90
21602;DHT22;10963;50.934;4.668;2023-12-28T04:33:24;11.50;99.90
21602;DHT22;10963;50.934;4.668;2023-12-28T04:35:50;11.50;99.90
21602;DHT22;10963;50.934;4.668;2023-12-28T04:38:18;11.40;99.90
21602;DHT22;10963;50.934;4.668;2023-12-28T04:40:44;11.50;99.90
21602;DHT22;10963;50.934;4.668;2023-12-28T04:43:10;11.50;99.90
21602;DHT22;10963;50.934;4.668;2023-12-28T04:45:35;11.50;99.90
21602;DHT22;10963;50.934;4.668;2023-12-28T04:48:04;11.40;99.90
21602;DHT22;10963;50.934;4.668;2023-12-28T04:50:32;11.30;99.90
21602;DHT22;10963;50.934;4.668;2023-12-28T04:52:58;11.40;99.90
21602;DHT22;10963;50.934;4.668;2023-12-28T04:55:26;11.40;99.90
21602;DHT22;10963;50.934;4.668;2023-12-28T04:57:52;11.30;99.90
21602;DHT22;10963;50.934;4.668;2023-12-28T05:00:20;11.30;99.90
21602;DHT22;10963;50.934;4.668;2023-12-28T05:02:46;11.30;99.90
21602;DHT22;10963;50.934;4.668;2023-12-28T05:05:14;11.30;99.90
21602;DHT22;10963;50.934;4.668;2023-12-28T05:07:40;11.40;99.90
21602;DHT22;10963;50.934;4.668;2023-12-28T05:10:06;11.30;99.90
21602;DHT22;10963;50.934;4.668;2023-12-28T05:12:32;11.30;99.90
21602;DHT22;10963;50.934;4.668;2023-12-28T05:14:59;11.40;99.90
21602;DHT22;10963;50.934;4.668;2023-12-28T05:17:25;11.40;99.90
21602;DHT22;10963;50.934;4.668;2023-12-28T05:19:51;11.50;99.90
21602;DHT22;10963;50.934;4.668;2023-12-28T05:22:17;11.40;99.90
21602;DHT22;10963;50.934;4.668;2023-12-28T05:24:42;11.40;99.90
21602;DHT22;10963;50.934;4.668;2023-12-28T05:27:08;11.30;99.90
21602;DHT22;10963;50.934;4.668;2023-12-28T05:29:34;11.40;99.90
21602;DHT22;10963;50.934;4.668;2023-12-28T05:31:59;11.30;99.90
21602;DHT22;10963;50.934;4.668;2023-12-28T05:34:25;11.20;99.90
21602;DHT22;10963;50.934;4.668;2023-12-28T05:36:51;11.10;99.90
21602;DHT22;10963;50.934;4.668;2023-12-28T05:39:18;11.10;99.90
21602;DHT22;10963;50.934;4.668;2023-12-28T05:41:52;11.00;99.90
21602;DHT22;10963;50.934;4.668;2023-12-28T05:44:17;11.10;99.90
21602;DHT22;10963;50.934;4.668;2023-12-28T05:46:43;11.10;99.90
21602;DHT22;10963;50.934;4.668;2023-12-28T05:49:11;11.10;99.90
21602;DHT22;10963;50.934;4.668;2023-12-28T05:51:38;11.00;99.90
21602;DHT22;10963;50.934;4.668;2023-12-28T05:54:05;11.10;99.90
21602;DHT22;10963;50.934;4.668;2023-12-28T05:56:31;11.20;99.90
21602;DHT22;10963;50.934;4.668;2023-12-28T05:58:57;11.20;99.90
21602;DHT22;10963;50.934;4.668;2023-12-28T06:01:22;11.20;99.90
21602;DHT22;10963;50.934;4.668;2023-12-28T06:03:48;11.20;99.90
21602;DHT22;10963;50.934;4.668;2023-12-28T06:06:22;11.10;99.90
21602;DHT22;10963;50.934;4.668;2023-12-28T06:08:48;11.10;99.90
21602;DHT22;10963;50.934;4.668;2023-12-28T06:11:13;11.00;99.90
21602;DHT22;10963;50.934;4.668;2023-12-28T06:13:39;11.00;99.90
21602;DHT22;10963;50.934;4.668;2023-12-28T06:16:05;11.00;99.90
21602;DHT22;10963;50.934;4.668;2023-12-28T06:18:31;10.90;99.90
21602;DHT22;10963;50.934;4.668;2023-12-28T06:20:57;10.90;99.90
21602;DHT22;10963;50.934;4.668;2023-12-28T06:23:25;10.80;99.90
21602;DHT22;10963;50.934;4.668;2023-12-28T06:25:51;10.80;99.90
21602;DHT22;10963;50.934;4.668;2023-12-28T06:28:17;10.80;99.90
21602;DHT22;10963;50.934;4.668;2023-12-28T06:30:43;11.00;99.90
21602;DHT22;10963;50.934;4.668;2023-12-28T06:33:11;11.00;99.90
21602;DHT22;10963;50.934;4.668;2023-12-28T06:35:39;10.90;99.90
21602;DHT22;10963;50.934;4.668;2023-12-28T06:38:05;10.80;99.90
21602;DHT22;10963;50.934;4.668;2023-12-28T06:40:30;10.90;99.90
21602;DHT22;10963;50.934;4.668;2023-12-28T06:43:01;10.90;99.90
21602;DHT22;10963;50.934;4.668;2023-12-28T06:45:27;10.90;99.90
21602;DHT22;10963;50.934;4.668;2023-12-28T06:47:53;10.90;99.90
21602;DHT22;10963;50.934;4.668;2023-12-28T06:50:21;10.90;99.90
21602;DHT22;10963;50.934;4.668;2023-12-28T06:52:49;10.90;99.90
21602;DHT22;10963;50.934;4.668;2023-12-28T06:55:15;10.80;99.90
21602;DHT22;10963;50.934;4.668;2023-12-28T06:57:40;10.80;99.90
21602;DHT22;10963;50.934;4.668;2023-12-28T07:00:07;10.70;99.90
21602;DHT22;10963;50.934;4.668;2023-12-28T07:02:35;10.70;99.90
21602;DHT22;10963;50.934;4.668;2023-12-28T07:05:01;10.70;99.90
21602;DHT22;10963;50.934;4.668;2023-12-28T07:07:29;10.80;99.90
21602;DHT22;10963;50.934;4.668;2023-12-28T07:09:55;10.70;99.90
21602;DHT22;10963;50.934;4.668;2023-12-28T07:12:20;10.80;99.90
21602;DHT22;10963;50.934;4.668;2023-12-28T07:14:46;10.70;99.90
21602;DHT22;10963;50.934;4.668;2023-12-28T07:17:12;10.70;99.90
21602;DHT22;10963;50.934;4.668;2023-12-28T07:19:44;10.70;99.90
21602;DHT22;10963;50.934;4.668;2023-12-28T07:22:12;10.60;99.90
21602;DHT22;10963;50.934;4.668;2023-12-28T07:24:38;10.60;99.90
21602;DHT22;10963;50.934;4.668;2023-12-28T07:27:04;10.50;99.90
21602;DHT22;10963;50.934;4.668;2023-12-28T07:29:32;10.50;99.90
21602;DHT22;10963;50.934;4.668;2023-12-28T07:31:58;10.50;99.90
21602;DHT22;10963;50.934;4.668;2023-12-28T07:34:26;10.50;99.90
21602;DHT22;10963;50.934;4.668;2023-12-28T07:36:54;10.50;99.90
21602;DHT22;10963;50.934;4.668;2023-12-28T07:39:20;10.50;99.90
21602;DHT22;10963;50.934;4.668;2023-12-28T07:41:48;10.60;99.90
21602;DHT22;10963;50.934;4.668;2023-12-28T07:44:17;10.60;99.90
21602;DHT22;10963;50.934;4.668;2023-12-28T07:46:45;10.60;99.90
21602;DHT22;10963;50.934;4.668;2023-12-28T07:49:11;10.50;99.90
21602;DHT22;10963;50.934;4.668;2023-12-28T07:51:43;10.50;99.90
21602;DHT22;10963;50.934;4.668;2023-12-28T07:54:11;10.50;99.90
21602;DHT22;10963;50.934;4.668;2023-12-28T07:56:38;10.50;99.90
21602;DHT22;10963;50.934;4.668;2023-12-28T07:59:05;10.50;99.90
21602;DHT22;10963;50.934;4.668;2023-12-28T08:01:34;10.40;99.90
21602;DHT22;10963;50.934;4.668;2023-12-28T08:04:02;10.50;99.90
21602;DHT22;10963;50.934;4.668;2023-12-28T08:06:33;10.50;99.90
21602;DHT22;10963;50.934;4.668;2023-12-28T08:09:04;10.50;99.90
21602;DHT22;10963;50.934;4.668;2023-12-28T08:11:29;10.50;99.90
21602;DHT22;10963;50.934;4.668;2023-12-28T08:13:55;10.50;99.90
21602;DHT22;10963;50.934;4.668;2023-12-28T08:16:21;10.50;99.90
21602;DHT22;10963;50.934;4.668;2023-12-28T08:18:46;10.50;99.90
21602;DHT22;10963;50.934;4.668;2023-12-28T08:21:12;10.50;99.90
21602;DHT22;10963;50.934;4.668;2023-12-28T08:23:41;10.50;99.90
21602;DHT22;10963;50.934;4.668;2023-12-28T08:26:06;10.40;99.90
21602;DHT22;10963;50.934;4.668;2023-12-28T08:28:33;10.40;99.90
21602;DHT22;10963;50.934;4.668;2023-12-28T08:30:59;10.40;99.90
21602;DHT22;10963;50.934;4.668;2023-12-28T08:33:27;10.40;99.90
21602;DHT22;10963;50.934;4.668;2023-12-28T08:35:55;10.40;99.90
21602;DHT22;10963;50.934;4.668;2023-12-28T08:38:20;10.50;99.90
21602;DHT22;10963;50.934;4.668;2023-12-28T08:40:46;10.50;99.90
21602;DHT22;10963;50.934;4.668;2023-12-28T08:43:12;10.60;99.90
21602;DHT22;10963;50.934;4.668;2023-12-28T08:45:37;10.60;99.90
21602;DHT22;10963;50.934;4.668;2023-12-28T08:48:04;10.60;99.90
21602;DHT22;10963;50.934;4.668;2023-12-28T08:50:30;10.60;99.90
21602;DHT22;10963;50.934;4.668;2023-12-28T08:52:56;10.60;99.90
21602;DHT22;10963;50.934;4.668;2023-12-28T08:55:22;10.70;99.90
21602;DHT22;10963;50.934;4.668;2023-12-28T08:57:47;10.70;99.90
21602;DHT22;10963;50.934;4.668;2023-12-28T09:00:16;10.90;99.90
21602;DHT22;10963;50.934;4.668;2023-12-28T09:02:42;11.00;99.90
21602;DHT22;10963;50.934;4.668;2023-12-28T09:05:09;11.10;99.90
21602;DHT22;10963;50.934;4.668;2023-12-28T09:07:35;11.30;99.90
21602;DHT22;10963;50.934;4.668;2023-12-28T09:10:06;11.20;99.90
21602;DHT22;10963;50.934;4.668;2023-12-28T09:12:34;11.10;99.90
21602;DHT22;10963;50.934;4.668;2023-12-28T09:15:00;11.20;99.90
21602;DHT22;10963;50.934;4.668;2023-12-28T09:17:28;11.10;99.90
21602;DHT22;10963;50.934;4.668;2023-12-28T09:19:58;11.10;99.90
21602;DHT22;10963;50.934;4.668;2023-12-28T09:22:25;11.20;99.90
21602;DHT22;10963;50.934;4.668;2023-12-28T09:24:51;11.30;99.90
21602;DHT22;10963;50.934;4.668;2023-12-28T09:27:16;11.30;99.90
21602;DHT22;10963;50.934;4.668;2023-12-28T09:29:47;11.30;99.90
21602;DHT22;10963;50.934;4.668;2023-12-28T09:32:14;11.30;99.90
21602;DHT22;10963;50.934;4.668;2023-12-28T09:34:44;11.30;99.90
21602;DHT22;10963;50.934;4.668;2023-12-28T09:37:10;11.20;99.90
21602;DHT22;10963;50.934;4.668;2023-12-28T09:39:36;11.20;99.90
21602;DHT22;10963;50.934;4.668;2023-12-28T09:42:09;11.20;99.90
21602;DHT22;10963;50.934;4.668;2023-12-28T09:44:40;11.20;99.90
21602;DHT22;10963;50.934;4.668;2023-12-28T09:47:10;11.40;99.90
21602;DHT22;10963;50.934;4.668;2023-12-28T09:49:41;11.60;99.90
21602;DHT22;10963;50.934;4.668;2023-12-28T09:52:07;11.80;99.90
21602;DHT22;10963;50.934;4.668;2023-12-28T09:54:37;11.90;99.90
21602;DHT22;10963;50.934;4.668;2023-12-28T09:57:03;12.00;99.90
21602;DHT22;10963;50.934;4.668;2023-12-28T09:59:30;12.20;99.90
21602;DHT22;10963;50.934;4.668;2023-12-28T10:01:59;12.20;99.90
21602;DHT22;10963;50.934;4.668;2023-12-28T10:04:28;12.30;99.90
21602;DHT22;10963;50.934;4.668;2023-12-28T10:06:54;12.30;99.90
21602;DHT22;10963;50.934;4.668;2023-12-28T10:09:21;12.10;99.90
21602;DHT22;10963;50.934;4.668;2023-12-28T10:11:50;12.20;99.90
21602;DHT22;10963;50.934;4.668;2023-12-28T10:14:15;12.10;99.90
21602;DHT22;10963;50.934;4.668;2023-12-28T10:16:42;12.20;99.90
21602;DHT22;10963;50.934;4.668;2023-12-28T10:19:07;12.10;99.90
21602;DHT22;10963;50.934;4.668;2023-12-28T10:21:33;12.10;99.90
21602;DHT22;10963;50.934;4.668;2023-12-28T10:24:00;12.20;99.90
21602;DHT22;10963;50.934;4.668;2023-12-28T10:26:27;12.10;99.90
21602;DHT22;10963;50.934;4.668;2023-12-28T10:28:59;12.10;99.90
21602;DHT22;10963;50.934;4.668;2023-12-28T10:31:27;12.30;99.90
21602;DHT22;10963;50.934;4.668;2023-12-28T10:33:52;12.40;99.90
21602;DHT22;10963;50.934;4.668;2023-12-28T10:36:22;12.30;99.90
21602;DHT22;10963;50.934;4.668;2023-12-28T10:38:51;12.30;99.90
21602;DHT22;10963;50.934;4.668;2023-12-28T10:41:18;12.50;99.90
21602;DHT22;10963;50.934;4.668;2023-12-28T10:44:03;12.60;99.90
21602;DHT22;10963;50.934;4.668;2023-12-28T10:46:32;12.60;99.90
21602;DHT22;10963;50.934;4.668;2023-12-28T10:49:21;12.70;99.90
21602;DHT22;10963;50.934;4.668;2023-12-28T10:51:55;12.70;99.90
21602;DHT22;10963;50.934;4.668;2023-12-28T10:54:41;12.80;99.90
21602;DHT22;10963;50.934;4.668;2023-12-28T11:00:10;12.60;99.90
21602;DHT22;10963;50.934;4.668;2023-12-28T11:02:50;12.70;99.90
21602;DHT22;10963;50.934;4.668;2023-12-28T11:05:21;12.70;99.90
21602;DHT22;10963;50.934;4.668;2023-12-28T11:07:49;12.70;99.90
21602;DHT22;10963;50.934;4.668;2023-12-28T11:10:22;12.70;99.90
21602;DHT22;10963;50.934;4.668;2023-12-28T11:12:52;12.60;99.90
21602;DHT22;10963;50.934;4.668;2023-12-28T11:15:19;12.60;99.90
21602;DHT22;10963;50.934;4.668;2023-12-28T11:17:45;12.70;99.90
21602;DHT22;10963;50.934;4.668;2023-12-28T11:20:11;12.80;99.90
21602;DHT22;10963;50.934;4.668;2023-12-28T11:22:39;12.70;99.90
21602;DHT22;10963;50.934;4.668;2023-12-28T11:25:06;12.50;99.90
21602;DHT22;10963;50.934;4.668;2023-12-28T11:27:35;12.40;99.90
21602;DHT22;10963;50.934;4.668;2023-12-28T11:30:04;12.30;99.90
21602;DHT22;10963;50.934;4.668;2023-12-28T11:32:33;12.50;99.90
21602;DHT22;10963;50.934;4.668;2023-12-28T11:34:59;12.50;99.90
21602;DHT22;10963;50.934;4.668;2023-12-28T11:37:26;12.60;99.90
21602;DHT22;10963;50.934;4.668;2023-12-28T11:39:53;12.40;99.90
21602;DHT22;10963;50.934;4.668;2023-12-28T11:42:25;12.50;99.90
21602;DHT22;10963;50.934;4.668;2023-12-28T11:44:56;12.40;99.90
21602;DHT22;10963;50.934;4.668;2023-12-28T11:47:25;12.40;99.90
21602;DHT22;10963;50.934;4.668;2023-12-28T11:49:54;12.50;99.90
21602;DHT22;10963;50.934;4.668;2023-12-28T11:54:51;12.70;99.90
21602;DHT22;10963;50.934;4.668;2023-12-28T11:57:20;12.50;99.90
21602;DHT22;10963;50.934;4.668;2023-12-28T11:59:52;12.70;99.90
21602;DHT22;10963;50.934;4.668;2023-12-28T12:02:19;12.80;99.90
21602;DHT22;10963;50.934;4.668;2023-12-28T12:04:44;12.70;99.90
21602;DHT22;10963;50.934;4.668;2023-12-28T12:07:10;12.80;99.90
21602;DHT22;10963;50.934;4.668;2023-12-28T12:09:36;12.70;99.90
21602;DHT22;10963;50.934;4.668;2023-12-28T12:12:02;12.80;99.90
21602;DHT22;10963;50.934;4.668;2023-12-28T12:14:31;12.80;99.90
21602;DHT22;10963;50.934;4.668;2023-12-28T12:17:02;12.80;99.90
21602;DHT22;10963;50.934;4.668;2023-12-28T12:19:31;12.70;99.90
21602;DHT22;10963;50.934;4.668;2023-12-28T12:21:57;12.70;99.90
21602;DHT22;10963;50.934;4.668;2023-12-28T12:24:23;12.70;99.90
21602;DHT22;10963;50.934;4.668;2023-12-28T12:26:50;12.70;99.90
21602;DHT22;10963;50.934;4.668;2023-12-28T12:29:20;12.60;99.90
21602;DHT22;10963;50.934;4.668;2023-12-28T12:31:48;12.60;99.90
21602;DHT22;10963;50.934;4.668;2023-12-28T12:34:17;12.50;99.90
21602;DHT22;10963;50.934;4.668;2023-12-28T12:36:43;12.50;99.90
21602;DHT22;10963;50.934;4.668;2023-12-28T12:39:13;12.50;99.90
21602;DHT22;10963;50.934;4.668;2023-12-28T12:41:41;12.60;99.90
21602;DHT22;10963;50.934;4.668;2023-12-28T12:44:10;12.60;99.90
21602;DHT22;10963;50.934;4.668;2023-12-28T12:46:41;12.50;99.90
21602;DHT22;10963;50.934;4.668;2023-12-28T12:49:07;12.50;99.90
21602;DHT22;10963;50.934;4.668;2023-12-28T12:51:33;12.40;99.90
21602;DHT22;10963;50.934;4.668;2023-12-28T12:54:02;12.50;99.90
21602;DHT22;10963;50.934;4.668;2023-12-28T12:56:31;12.50;99.90
21602;DHT22;10963;50.934;4.668;2023-12-28T12:59:02;12.50;99.90
21602;DHT22;10963;50.934;4.668;2023-12-28T13:01:27;12.70;99.90
21602;DHT22;10963;50.934;4.668;2023-12-28T13:03:54;12.60;99.90
21602;DHT22;10963;50.934;4.668;2023-12-28T13:06:22;12.60;99.90
21602;DHT22;10963;50.934;4.668;2023-12-28T13:08:48;12.50;99.90
21602;DHT22;10963;50.934;4.668;2023-12-28T13:11:14;12.40;99.90
21602;DHT22;10963;50.934;4.668;2023-12-28T13:13:41;12.30;99.90
21602;DHT22;10963;50.934;4.668;2023-12-28T13:16:09;12.30;99.90
21602;DHT22;10963;50.934;4.668;2023-12-28T13:18:39;12.20;99.90
21602;DHT22;10963;50.934;4.668;2023-12-28T13:21:07;12.30;99.90
21602;DHT22;10963;50.934;4.668;2023-12-28T13:23:33;12.40;99.90
21602;DHT22;10963;50.934;4.668;2023-12-28T13:25:58;12.40;99.90
21602;DHT22;10963;50.934;4.668;2023-12-28T13:28:26;12.30;99.90
21602;DHT22;10963;50.934;4.668;2023-12-28T13:30:52;12.30;99.90
21602;DHT22;10963;50.934;4.668;2023-12-28T13:33:21;12.30;99.90
21602;DHT22;10963;50.934;4.668;2023-12-28T13:35:47;12.20;99.90
21602;DHT22;10963;50.934;4.668;2023-12-28T13:38:13;12.20;99.90
21602;DHT22;10963;50.934;4.668;2023-12-28T13:40:38;12.20;99.90
21602;DHT22;10963;50.934;4.668;2023-12-28T13:43:04;12.10;99.90
21602;DHT22;10963;50.934;4.668;2023-12-28T13:45:30;12.20;99.90
21602;DHT22;10963;50.934;4.668;2023-12-28T13:47:56;12.10;99.90
21602;DHT22;10963;50.934;4.668;2023-12-28T13:50:21;12.00;99.90
21602;DHT22;10963;50.934;4.668;2023-12-28T13:52:47;12.00;99.90
21602;DHT22;10963;50.934;4.668;2023-12-28T13:55:15;12.10;99.90
21602;DHT22;10963;50.934;4.668;2023-12-28T13:57:41;12.10;99.90
21602;DHT22;10963;50.934;4.668;2023-12-28T14:00:10;12.20;99.90
21602;DHT22;10963;50.934;4.668;2023-12-28T14:02:36;12.30;99.90
21602;DHT22;10963;50.934;4.668;2023-12-28T14:05:02;12.20;99.90
21602;DHT22;10963;50.934;4.668;2023-12-28T14:07:30;12.20;99.90
21602;DHT22;10963;50.934;4.668;2023-12-28T14:09:55;12.20;99.90
21602;DHT22;10963;50.934;4.668;2023-12-28T14:12:26;12.10;99.90
21602;DHT22;10963;50.934;4.668;2023-12-28T14:14:52;12.20;99.90
21602;DHT22;10963;50.934;4.668;2023-12-28T14:17:17;12.20;99.90
21602;DHT22;10963;50.934;4.668;2023-12-28T14:19:46;12.30;99.90
21602;DHT22;10963;50.934;4.668;2023-12-28T14:22:13;12.30;99.90
21602;DHT22;10963;50.934;4.668;2023-12-28T14:24:39;12.30;99.90
21602;DHT22;10963;50.934;4.668;2023-12-28T14:27:05;12.20;99.90
21602;DHT22;10963;50.934;4.668;2023-12-28T14:29:33;12.30;99.90
21602;DHT22;10963;50.934;4.668;2023-12-28T14:32:01;12.20;99.90
21602;DHT22;10963;50.934;4.668;2023-12-28T14:34:28;12.20;99.90
21602;DHT22;10963;50.934;4.668;2023-12-28T14:36:56;12.20;99.90
21602;DHT22;10963;50.934;4.668;2023-12-28T14:39:24;12.10;99.90
21602;DHT22;10963;50.934;4.668;2023-12-28T14:41:52;12.10;99.90
21602;DHT22;10963;50.934;4.668;2023-12-28T14:44:20;12.20;99.90
21602;DHT22;10963;50.934;4.668;2023-12-28T14:46:46;12.10;99.90
21602;DHT22;10963;50.934;4.668;2023-12-28T14:49:12;12.10;99.90
21602;DHT22;10963;50.934;4.668;2023-12-28T14:51:37;12.20;99.90
21602;DHT22;10963;50.934;4.668;2023-12-28T14:54:04;12.10;99.90
21602;DHT22;10963;50.934;4.668;2023-12-28T14:56:30;12.00;99.90
21602;DHT22;10963;50.934;4.668;2023-12-28T14:58:57;11.90;99.90
21602;DHT22;10963;50.934;4.668;2023-12-28T15:01:26;12.00;99.90
21602;DHT22;10963;50.934;4.668;2023-12-28T15:03:51;12.10;99.90
21602;DHT22;10963;50.934;4.668;2023-12-28T15:06:17;12.00;99.90
21602;DHT22;10963;50.934;4.668;2023-12-28T15:08:43;12.00;99.90
21602;DHT22;10963;50.934;4.668;2023-12-28T15:11:09;11.90;99.90
21602;DHT22;10963;50.934;4.668;2023-12-28T15:13:37;11.80;99.90
21602;DHT22;10963;50.934;4.668;2023-12-28T15:16:05;11.90;99.90
21602;DHT22;10963;50.934;4.668;2023-12-28T15:18:34;11.90;99.90
21602;DHT22;10963;50.934;4.668;2023-12-28T15:21:02;11.90;99.90
21602;DHT22;10963;50.934;4.668;2023-12-28T15:23:31;11.80;99.90
21602;DHT22;10963;50.934;4.668;2023-12-28T15:25:57;11.70;99.90
21602;DHT22;10963;50.934;4.668;2023-12-28T15:28:25;11.60;99.90
21602;DHT22;10963;50.934;4.668;2023-12-28T15:30:50;11.60;99.90
21602;DHT22;10963;50.934;4.668;2023-12-28T15:33:16;11.60;99.90
21602;DHT22;10963;50.934;4.668;2023-12-28T15:35:42;11.50;99.90
21602;DHT22;10963;50.934;4.668;2023-12-28T15:38:07;11.50;99.90
21602;DHT22;10963;50.934;4.668;2023-12-28T15:40:35;11.40;99.90